createdAt,value
2018-10-02T00:00:03.466Z,1014.17
2018-10-02T00:00:38.996Z,1014.19
2018-10-02T00:01:14.616Z,1014.19
2018-10-02T00:01:50.023Z,1014.18
2018-10-02T00:02:25.381Z,1014.18
2018-10-02T00:03:01.096Z,1014.19
2018-10-02T00:03:36.348Z,1014.16
2018-10-02T00:04:11.720Z,1014.18
2018-10-02T00:04:47.228Z,1014.13
2018-10-02T00:05:22.894Z,1014.13
2018-10-02T00:05:58.075Z,1014.13
2018-10-02T00:06:33.504Z,1014.10
2018-10-02T00:07:10.363Z,1014.08
2018-10-02T00:07:45.934Z,1014.07
2018-10-02T00:08:21.035Z,1014.08
2018-10-02T00:08:56.268Z,1014.06
2018-10-02T00:09:31.671Z,1014.11
2018-10-02T00:10:06.896Z,1014.09
2018-10-02T00:10:41.981Z,1014.12
2018-10-02T00:11:17.511Z,1014.11
2018-10-02T00:11:52.630Z,1014.14
2018-10-02T00:12:28.287Z,1014.09
2018-10-02T00:13:03.867Z,1014.13
2018-10-02T00:13:39.144Z,1014.07
2018-10-02T00:14:14.548Z,1014.08
2018-10-02T00:14:49.772Z,1014.05
2018-10-02T00:15:24.898Z,1014.06
2018-10-02T00:16:00.194Z,1014.02
2018-10-02T00:16:35.787Z,1013.98
2018-10-02T00:17:11.321Z,1013.97
2018-10-02T00:17:47.844Z,1013.99
2018-10-02T00:18:23.592Z,1014.00
2018-10-02T00:18:59.222Z,1014.02
2018-10-02T00:19:34.929Z,1014.01
2018-10-02T00:20:10.414Z,1014.01
2018-10-02T00:20:46.196Z,1013.97
2018-10-02T00:21:21.287Z,1013.99
2018-10-02T00:21:56.821Z,1013.96
2018-10-02T00:22:32.319Z,1013.95
2018-10-02T00:23:07.562Z,1013.95
2018-10-02T00:23:42.669Z,1013.98
2018-10-02T00:24:17.984Z,1013.96
2018-10-02T00:24:53.402Z,1013.98
2018-10-02T00:25:28.698Z,1013.98
2018-10-02T00:26:03.928Z,1013.95
2018-10-02T00:26:39.326Z,1013.98
2018-10-02T00:27:14.855Z,1013.94
2018-10-02T00:27:50.456Z,1013.93
2018-10-02T00:28:25.992Z,1013.97
2018-10-02T00:29:01.734Z,1013.99
2018-10-02T00:29:37.048Z,1014.01
2018-10-02T00:30:12.463Z,1014.01
2018-10-02T00:30:47.780Z,1014.01
2018-10-02T00:31:23.055Z,1014.02
2018-10-02T00:31:58.393Z,1014.00
2018-10-02T00:32:33.945Z,1013.97
2018-10-02T00:33:09.242Z,1013.97
2018-10-02T00:33:44.491Z,1013.93
2018-10-02T00:34:19.828Z,1013.97
2018-10-02T00:34:55.263Z,1013.96
2018-10-02T00:35:30.568Z,1013.96
2018-10-02T00:36:05.889Z,1013.92
2018-10-02T00:36:41.278Z,1013.93
2018-10-02T00:37:16.531Z,1013.92
2018-10-02T00:37:51.794Z,1013.90
2018-10-02T00:38:27.280Z,1013.86
2018-10-02T00:39:02.641Z,1013.87
2018-10-02T00:39:38.143Z,1013.81
2018-10-02T00:40:13.639Z,1013.85
2018-10-02T00:40:48.941Z,1013.80
2018-10-02T00:41:24.265Z,1013.85
2018-10-02T00:41:59.602Z,1013.83
2018-10-02T00:42:35.299Z,1013.87
2018-10-02T00:43:13.998Z,1013.85
2018-10-02T00:43:49.507Z,1013.89
2018-10-02T00:44:25.055Z,1013.92
2018-10-02T00:45:00.528Z,1013.92
2018-10-02T00:45:35.843Z,1013.93
2018-10-02T00:46:10.928Z,1013.90
2018-10-02T00:46:46.758Z,1013.93
2018-10-02T00:47:22.300Z,1013.96
2018-10-02T00:47:57.678Z,1013.94
2018-10-02T00:48:33.554Z,1013.94
2018-10-02T00:49:09.173Z,1013.98
2018-10-02T00:49:44.479Z,1013.99
2018-10-02T00:50:19.897Z,1013.98
2018-10-02T00:50:55.203Z,1013.97
2018-10-02T00:51:30.752Z,1013.98
2018-10-02T00:52:06.380Z,1013.98
2018-10-02T00:52:41.649Z,1013.95
2018-10-02T00:53:16.637Z,1013.98
2018-10-02T00:53:52.072Z,1013.94
2018-10-02T00:54:27.274Z,1013.97
2018-10-02T00:55:02.609Z,1014.01
2018-10-02T00:55:37.668Z,1014.01
2018-10-02T00:56:13.175Z,1014.02
2018-10-02T00:56:48.551Z,1014.00
2018-10-02T00:57:23.897Z,1014.00
2018-10-02T00:57:59.058Z,1013.99
2018-10-02T00:58:34.526Z,1013.96
2018-10-02T00:59:09.788Z,1013.95
2018-10-02T00:59:45.124Z,1013.95
2018-10-02T01:00:20.685Z,1013.94
2018-10-02T01:00:56.108Z,1013.93
2018-10-02T01:01:31.514Z,1013.95
2018-10-02T01:02:06.905Z,1013.92
2018-10-02T01:02:42.432Z,1013.90
2018-10-02T01:03:18.147Z,1013.92
2018-10-02T01:03:53.466Z,1013.96
2018-10-02T01:04:28.906Z,1013.92
2018-10-02T01:05:04.210Z,1013.88
2018-10-02T01:05:39.741Z,1013.95
2018-10-02T01:06:15.193Z,1013.92
2018-10-02T01:06:50.553Z,1013.95
2018-10-02T01:07:25.953Z,1013.93
2018-10-02T01:08:01.709Z,1013.97
2018-10-02T01:08:37.225Z,1013.93
2018-10-02T01:09:12.689Z,1013.97
2018-10-02T01:09:48.098Z,1013.96
2018-10-02T01:10:23.433Z,1013.98
2018-10-02T01:10:59.551Z,1013.98
2018-10-02T01:11:34.957Z,1014.00
2018-10-02T01:12:10.397Z,1013.96
2018-10-02T01:12:45.917Z,1013.98
2018-10-02T01:13:21.028Z,1013.96
2018-10-02T01:13:56.586Z,1013.93
2018-10-02T01:14:31.899Z,1013.94
2018-10-02T01:15:07.172Z,1013.93
2018-10-02T01:15:42.581Z,1013.90
2018-10-02T01:16:17.802Z,1013.95
2018-10-02T01:16:53.206Z,1013.88
2018-10-02T01:17:28.642Z,1013.90
2018-10-02T01:18:03.775Z,1013.90
2018-10-02T01:18:39.189Z,1013.89
2018-10-02T01:19:15.000Z,1013.88
2018-10-02T01:19:50.352Z,1013.90
2018-10-02T01:20:25.984Z,1013.86
2018-10-02T01:21:01.442Z,1013.83
2018-10-02T01:21:36.618Z,1013.85
2018-10-02T01:22:12.373Z,1013.78
2018-10-02T01:22:47.835Z,1013.78
2018-10-02T01:23:23.720Z,1013.73
2018-10-02T01:23:59.051Z,1013.74
2018-10-02T01:24:34.740Z,1013.70
2018-10-02T01:25:10.169Z,1013.72
2018-10-02T01:25:45.869Z,1013.71
2018-10-02T01:26:21.226Z,1013.63
2018-10-02T01:26:56.381Z,1013.62
2018-10-02T01:27:31.648Z,1013.61
2018-10-02T01:28:07.170Z,1013.62
2018-10-02T01:28:42.702Z,1013.67
2018-10-02T01:29:18.130Z,1013.68
2018-10-02T01:29:53.419Z,1013.65
2018-10-02T01:30:28.753Z,1013.70
2018-10-02T01:31:03.940Z,1013.67
2018-10-02T01:31:38.963Z,1013.68
2018-10-02T01:32:14.234Z,1013.65
2018-10-02T01:32:49.808Z,1013.68
2018-10-02T01:33:25.229Z,1013.70
2018-10-02T01:34:00.737Z,1013.66
2018-10-02T01:34:36.051Z,1013.63
2018-10-02T01:35:11.760Z,1013.62
2018-10-02T01:35:47.274Z,1013.63
2018-10-02T01:36:22.477Z,1013.66
2018-10-02T01:36:58.243Z,1013.65
2018-10-02T01:37:33.550Z,1013.64
2018-10-02T01:38:09.004Z,1013.65
2018-10-02T01:38:44.308Z,1013.64
2018-10-02T01:39:22.639Z,1013.63
2018-10-02T01:39:58.182Z,1013.65
2018-10-02T01:40:33.303Z,1013.66
2018-10-02T01:41:08.528Z,1013.63
2018-10-02T01:41:43.841Z,1013.64
2018-10-02T01:42:19.277Z,1013.62
2018-10-02T01:42:54.572Z,1013.60
2018-10-02T01:43:30.218Z,1013.59
2018-10-02T01:44:05.577Z,1013.59
2018-10-02T01:44:41.076Z,1013.56
2018-10-02T01:45:16.374Z,1013.57
2018-10-02T01:45:51.497Z,1013.55
2018-10-02T01:46:26.833Z,1013.54
2018-10-02T01:47:02.176Z,1013.54
2018-10-02T01:47:37.500Z,1013.52
2018-10-02T01:48:13.002Z,1013.55
2018-10-02T01:48:48.263Z,1013.49
2018-10-02T01:49:23.682Z,1013.48
2018-10-02T01:49:59.172Z,1013.47
2018-10-02T01:50:34.831Z,1013.55
2018-10-02T01:51:10.370Z,1013.52
2018-10-02T01:51:45.687Z,1013.54
2018-10-02T01:52:21.034Z,1013.61
2018-10-02T01:52:56.256Z,1013.59
2018-10-02T01:53:31.812Z,1013.62
2018-10-02T01:54:07.156Z,1013.59
2018-10-02T01:54:42.427Z,1013.62
2018-10-02T01:55:17.627Z,1013.63
2018-10-02T01:55:52.980Z,1013.64
2018-10-02T01:56:28.488Z,1013.65
2018-10-02T01:57:04.051Z,1013.60
2018-10-02T01:57:39.683Z,1013.60
2018-10-02T01:58:15.528Z,1013.56
2018-10-02T01:58:51.066Z,1013.57
2018-10-02T01:59:26.620Z,1013.56
2018-10-02T02:00:01.971Z,1013.54
2018-10-02T02:00:37.505Z,1013.51
2018-10-02T02:01:12.933Z,1013.49
2018-10-02T02:01:48.255Z,1013.54
2018-10-02T02:02:23.571Z,1013.53
2018-10-02T02:02:58.974Z,1013.57
2018-10-02T02:03:34.110Z,1013.58
2018-10-02T02:04:09.235Z,1013.57
2018-10-02T02:04:44.575Z,1013.61
2018-10-02T02:05:20.029Z,1013.59
2018-10-02T02:05:58.624Z,1013.60
2018-10-02T02:06:33.741Z,1013.56
2018-10-02T02:07:09.148Z,1013.56
2018-10-02T02:07:44.678Z,1013.58
2018-10-02T02:08:20.105Z,1013.53
2018-10-02T02:08:55.757Z,1013.51
2018-10-02T02:09:31.122Z,1013.49
2018-10-02T02:10:06.563Z,1013.49
2018-10-02T02:10:42.324Z,1013.46
2018-10-02T02:11:17.610Z,1013.49
2018-10-02T02:11:52.867Z,1013.44
2018-10-02T02:12:28.212Z,1013.45
2018-10-02T02:13:03.765Z,1013.44
2018-10-02T02:13:39.067Z,1013.43
2018-10-02T02:14:14.681Z,1013.40
2018-10-02T02:14:50.100Z,1013.43
2018-10-02T02:15:25.430Z,1013.47
2018-10-02T02:16:00.976Z,1013.37
2018-10-02T02:16:36.496Z,1013.42
2018-10-02T02:17:11.937Z,1013.38
2018-10-02T02:17:47.137Z,1013.38
2018-10-02T02:18:22.584Z,1013.36
2018-10-02T02:18:57.691Z,1013.33
2018-10-02T02:19:33.045Z,1013.31
2018-10-02T02:20:08.489Z,1013.30
2018-10-02T02:20:44.546Z,1013.25
2018-10-02T02:21:19.704Z,1013.22
2018-10-02T02:21:54.924Z,1013.23
2018-10-02T02:22:30.055Z,1013.22
2018-10-02T02:23:05.771Z,1013.18
2018-10-02T02:23:41.574Z,1013.23
2018-10-02T02:24:16.877Z,1013.20
2018-10-02T02:24:52.296Z,1013.18
2018-10-02T02:25:27.513Z,1013.13
2018-10-02T02:26:03.336Z,1013.11
2018-10-02T02:26:38.866Z,1013.11
2018-10-02T02:27:13.985Z,1013.09
2018-10-02T02:27:49.274Z,1013.14
2018-10-02T02:28:24.798Z,1013.11
2018-10-02T02:29:00.537Z,1013.14
2018-10-02T02:29:35.969Z,1013.15
2018-10-02T02:30:11.179Z,1013.10
2018-10-02T02:30:46.423Z,1013.08
2018-10-02T02:31:22.220Z,1013.10
2018-10-02T02:31:57.620Z,1013.10
2018-10-02T02:32:33.034Z,1013.12
2018-10-02T02:33:08.426Z,1013.07
2018-10-02T02:33:46.899Z,1013.06
2018-10-02T02:34:22.481Z,1013.10
2018-10-02T02:34:57.597Z,1013.03
2018-10-02T02:35:33.041Z,1013.07
2018-10-02T02:36:08.636Z,1013.05
2018-10-02T02:36:43.898Z,1013.05
2018-10-02T02:37:19.189Z,1013.03
2018-10-02T02:37:54.708Z,1013.04
2018-10-02T02:38:30.090Z,1013.04
2018-10-02T02:39:05.531Z,1013.03
2018-10-02T02:39:40.991Z,1013.05
2018-10-02T02:40:16.179Z,1013.03
2018-10-02T02:40:51.759Z,1013.01
2018-10-02T02:41:26.985Z,1013.05
2018-10-02T02:42:02.582Z,1013.05
2018-10-02T02:42:37.890Z,1013.06
2018-10-02T02:43:13.096Z,1013.02
2018-10-02T02:43:48.366Z,1013.08
2018-10-02T02:44:23.741Z,1013.01
2018-10-02T02:44:58.987Z,1013.01
2018-10-02T02:45:34.392Z,1013.00
2018-10-02T02:46:09.770Z,1012.99
2018-10-02T02:46:45.200Z,1013.01
2018-10-02T02:47:20.432Z,1013.03
2018-10-02T02:47:55.729Z,1013.03
2018-10-02T02:48:31.476Z,1013.00
2018-10-02T02:49:06.987Z,1013.00
2018-10-02T02:49:45.507Z,1012.99
2018-10-02T02:50:20.876Z,1013.06
2018-10-02T02:50:56.165Z,1013.05
2018-10-02T02:51:31.416Z,1013.03
2018-10-02T02:52:06.717Z,1013.01
2018-10-02T02:52:41.927Z,1013.02
2018-10-02T02:53:17.268Z,1013.00
2018-10-02T02:53:52.611Z,1013.03
2018-10-02T02:54:27.999Z,1013.05
2018-10-02T02:55:03.410Z,1012.99
2018-10-02T02:55:39.035Z,1013.02
2018-10-02T02:56:14.225Z,1012.97
2018-10-02T02:56:49.975Z,1012.97
2018-10-02T02:57:25.458Z,1012.96
2018-10-02T02:58:00.771Z,1012.92
2018-10-02T02:58:36.112Z,1012.89
2018-10-02T02:59:11.416Z,1012.85
2018-10-02T02:59:46.968Z,1012.82
2018-10-02T03:00:22.278Z,1012.81
2018-10-02T03:00:57.685Z,1012.82
2018-10-02T03:01:32.829Z,1012.81
2018-10-02T03:02:08.084Z,1012.82
2018-10-02T03:02:43.625Z,1012.82
2018-10-02T03:03:19.065Z,1012.85
2018-10-02T03:03:54.677Z,1012.86
2018-10-02T03:04:30.033Z,1012.81
2018-10-02T03:05:05.804Z,1012.81
2018-10-02T03:05:41.114Z,1012.76
2018-10-02T03:06:16.797Z,1012.78
2018-10-02T03:06:51.896Z,1012.79
2018-10-02T03:07:27.231Z,1012.74
2018-10-02T03:08:02.425Z,1012.76
2018-10-02T03:08:37.859Z,1012.77
2018-10-02T03:09:13.097Z,1012.74
2018-10-02T03:09:48.426Z,1012.68
2018-10-02T03:10:23.849Z,1012.67
2018-10-02T03:10:59.548Z,1012.67
2018-10-02T03:11:35.061Z,1012.63
2018-10-02T03:12:10.482Z,1012.62
2018-10-02T03:12:46.110Z,1012.64
2018-10-02T03:13:21.826Z,1012.65
2018-10-02T03:13:57.332Z,1012.64
2018-10-02T03:14:32.957Z,1012.64
2018-10-02T03:15:08.361Z,1012.65
2018-10-02T03:15:44.005Z,1012.67
2018-10-02T03:16:19.223Z,1012.58
2018-10-02T03:16:54.555Z,1012.68
2018-10-02T03:17:30.325Z,1012.57
2018-10-02T03:18:05.784Z,1012.54
2018-10-02T03:18:41.102Z,1012.51
2018-10-02T03:19:16.728Z,1012.47
2018-10-02T03:19:52.038Z,1012.46
2018-10-02T03:20:27.173Z,1012.41
2018-10-02T03:21:02.714Z,1012.41
2018-10-02T03:21:38.495Z,1012.39
2018-10-02T03:22:14.030Z,1012.40
2018-10-02T03:22:49.407Z,1012.42
2018-10-02T03:23:24.719Z,1012.42
2018-10-02T03:24:00.256Z,1012.39
2018-10-02T03:24:35.448Z,1012.41
2018-10-02T03:25:10.803Z,1012.38
2018-10-02T03:25:46.015Z,1012.39
2018-10-02T03:26:21.844Z,1012.39
2018-10-02T03:26:57.233Z,1012.37
2018-10-02T03:27:32.645Z,1012.36
2018-10-02T03:28:08.237Z,1012.35
2018-10-02T03:28:43.720Z,1012.35
2018-10-02T03:29:19.215Z,1012.33
2018-10-02T03:29:54.594Z,1012.31
2018-10-02T03:30:29.886Z,1012.33
2018-10-02T03:31:05.069Z,1012.35
2018-10-02T03:31:40.708Z,1012.33
2018-10-02T03:32:16.010Z,1012.30
2018-10-02T03:32:51.536Z,1012.29
2018-10-02T03:33:26.891Z,1012.36
2018-10-02T03:34:02.859Z,1012.35
2018-10-02T03:34:38.291Z,1012.32
2018-10-02T03:35:13.724Z,1012.32
2018-10-02T03:35:49.012Z,1012.32
2018-10-02T03:36:24.149Z,1012.33
2018-10-02T03:36:59.538Z,1012.27
2018-10-02T03:37:34.782Z,1012.25
2018-10-02T03:38:10.306Z,1012.22
2018-10-02T03:38:45.691Z,1012.17
2018-10-02T03:39:21.045Z,1012.17
2018-10-02T03:39:56.412Z,1012.17
2018-10-02T03:40:31.769Z,1012.15
2018-10-02T03:41:07.385Z,1012.14
2018-10-02T03:41:42.756Z,1012.19
2018-10-02T03:42:17.928Z,1012.17
2018-10-02T03:42:53.210Z,1012.24
2018-10-02T03:43:28.652Z,1012.21
2018-10-02T03:44:04.198Z,1012.19
2018-10-02T03:44:39.611Z,1012.25
2018-10-02T03:45:14.977Z,1012.25
2018-10-02T03:45:50.305Z,1012.25
2018-10-02T03:46:25.730Z,1012.28
2018-10-02T03:47:01.247Z,1012.21
2018-10-02T03:47:36.691Z,1012.18
2018-10-02T03:48:12.130Z,1012.17
2018-10-02T03:48:47.425Z,1012.15
2018-10-02T03:49:22.879Z,1012.10
2018-10-02T03:49:58.112Z,1012.06
2018-10-02T03:50:33.381Z,1012.06
2018-10-02T03:51:08.983Z,1012.04
2018-10-02T03:51:44.754Z,1012.00
2018-10-02T03:52:20.290Z,1011.97
2018-10-02T03:52:55.707Z,1011.98
2018-10-02T03:53:31.099Z,1011.96
2018-10-02T03:54:06.511Z,1011.98
2018-10-02T03:54:41.716Z,1012.02
2018-10-02T03:55:17.056Z,1012.04
2018-10-02T03:55:52.386Z,1012.05
2018-10-02T03:56:27.748Z,1012.09
2018-10-02T03:57:03.085Z,1012.12
2018-10-02T03:57:38.378Z,1012.05
2018-10-02T03:58:13.994Z,1012.01
2018-10-02T03:58:49.310Z,1012.02
2018-10-02T03:59:24.566Z,1012.05
2018-10-02T03:59:59.770Z,1012.05
2018-10-02T04:00:35.093Z,1012.07
2018-10-02T04:01:10.524Z,1012.06
2018-10-02T04:01:46.253Z,1012.05
2018-10-02T04:02:21.920Z,1012.01
2018-10-02T04:02:57.427Z,1012.04
2018-10-02T04:03:32.844Z,1012.05
2018-10-02T04:04:07.953Z,1011.98
2018-10-02T04:04:43.700Z,1012.02
2018-10-02T04:05:19.057Z,1011.98
2018-10-02T04:05:54.154Z,1011.95
2018-10-02T04:06:29.561Z,1011.99
2018-10-02T04:07:05.567Z,1011.89
2018-10-02T04:07:41.396Z,1011.92
2018-10-02T04:08:16.845Z,1011.91
2018-10-02T04:08:52.269Z,1011.85
2018-10-02T04:09:27.682Z,1011.86
2018-10-02T04:10:02.913Z,1011.89
2018-10-02T04:10:38.455Z,1011.89
2018-10-02T04:11:13.879Z,1011.87
2018-10-02T04:11:49.276Z,1011.83
2018-10-02T04:12:24.608Z,1011.82
2018-10-02T04:12:59.768Z,1011.84
2018-10-02T04:13:35.135Z,1011.80
2018-10-02T04:14:10.641Z,1011.79
2018-10-02T04:14:45.941Z,1011.81
2018-10-02T04:15:21.620Z,1011.83
2018-10-02T04:15:56.959Z,1011.71
2018-10-02T04:16:32.277Z,1011.72
2018-10-02T04:17:07.577Z,1011.69
2018-10-02T04:17:43.305Z,1011.60
2018-10-02T04:18:18.804Z,1011.66
2018-10-02T04:18:54.114Z,1011.61
2018-10-02T04:19:29.544Z,1011.55
2018-10-02T04:20:04.979Z,1011.54
2018-10-02T04:20:40.365Z,1011.53
2018-10-02T04:21:15.748Z,1011.50
2018-10-02T04:21:51.051Z,1011.54
2018-10-02T04:22:26.357Z,1011.54
2018-10-02T04:23:01.679Z,1011.56
2018-10-02T04:23:37.117Z,1011.57
2018-10-02T04:24:12.666Z,1011.59
2018-10-02T04:24:48.299Z,1011.58
2018-10-02T04:25:23.391Z,1011.61
2018-10-02T04:25:58.552Z,1011.56
2018-10-02T04:26:33.672Z,1011.58
2018-10-02T04:27:08.824Z,1011.60
2018-10-02T04:27:44.196Z,1011.59
2018-10-02T04:28:19.540Z,1011.61
2018-10-02T04:28:54.901Z,1011.64
2018-10-02T04:29:30.119Z,1011.66
2018-10-02T04:30:05.469Z,1011.65
2018-10-02T04:30:40.795Z,1011.63
2018-10-02T04:31:16.173Z,1011.67
2018-10-02T04:31:52.282Z,1011.68
2018-10-02T04:32:27.652Z,1011.65
2018-10-02T04:33:03.198Z,1011.65
2018-10-02T04:33:38.499Z,1011.68
2018-10-02T04:34:13.861Z,1011.66
2018-10-02T04:34:49.945Z,1011.69
2018-10-02T04:35:25.292Z,1011.62
2018-10-02T04:36:00.388Z,1011.61
2018-10-02T04:36:35.928Z,1011.60
2018-10-02T04:37:11.360Z,1011.58
2018-10-02T04:37:46.885Z,1011.55
2018-10-02T04:38:22.506Z,1011.55
2018-10-02T04:38:57.443Z,1011.59
2018-10-02T04:39:32.799Z,1011.56
2018-10-02T04:40:07.875Z,1011.64
2018-10-02T04:40:44.920Z,1011.56
2018-10-02T04:41:20.467Z,1011.59
2018-10-02T04:41:56.089Z,1011.60
2018-10-02T04:42:31.711Z,1011.60
2018-10-02T04:43:07.226Z,1011.61
2018-10-02T04:43:42.829Z,1011.59
2018-10-02T04:44:18.104Z,1011.59
2018-10-02T04:44:53.408Z,1011.59
2018-10-02T04:45:28.685Z,1011.64
2018-10-02T04:46:04.326Z,1011.60
2018-10-02T04:46:39.666Z,1011.57
2018-10-02T04:47:14.903Z,1011.62
2018-10-02T04:47:50.322Z,1011.62
2018-10-02T04:48:25.677Z,1011.58
2018-10-02T04:49:01.039Z,1011.57
2018-10-02T04:49:36.174Z,1011.54
2018-10-02T04:50:11.693Z,1011.51
2018-10-02T04:50:47.529Z,1011.52
2018-10-02T04:51:23.139Z,1011.51
2018-10-02T04:51:58.371Z,1011.46
2018-10-02T04:52:33.903Z,1011.48
2018-10-02T04:53:09.403Z,1011.51
2018-10-02T04:53:45.211Z,1011.51
2018-10-02T04:54:20.611Z,1011.44
2018-10-02T04:54:56.460Z,1011.45
2018-10-02T04:55:31.996Z,1011.46
2018-10-02T04:56:07.318Z,1011.57
2018-10-02T04:56:42.417Z,1011.54
2018-10-02T04:57:17.771Z,1011.58
2018-10-02T04:57:52.966Z,1011.50
2018-10-02T04:58:28.493Z,1011.42
2018-10-02T04:59:03.809Z,1011.42
2018-10-02T04:59:39.736Z,1011.44
2018-10-02T05:00:15.166Z,1011.36
2018-10-02T05:00:50.511Z,1011.36
2018-10-02T05:01:25.930Z,1011.31
2018-10-02T05:02:01.230Z,1011.31
2018-10-02T05:02:37.015Z,1011.28
2018-10-02T05:03:12.699Z,1011.29
2018-10-02T05:03:48.138Z,1011.32
2018-10-02T05:04:23.593Z,1011.33
2018-10-02T05:04:59.108Z,1011.33
2018-10-02T05:05:34.680Z,1011.35
2018-10-02T05:06:09.985Z,1011.35
2018-10-02T05:06:45.516Z,1011.30
2018-10-02T05:07:20.832Z,1011.33
2018-10-02T05:07:55.997Z,1011.33
2018-10-02T05:08:31.281Z,1011.37
2018-10-02T05:09:06.408Z,1011.32
2018-10-02T05:09:41.683Z,1011.36
2018-10-02T05:10:16.885Z,1011.34
2018-10-02T05:10:52.232Z,1011.36
2018-10-02T05:11:27.558Z,1011.35
2018-10-02T05:12:02.811Z,1011.34
2018-10-02T05:12:38.521Z,1011.35
2018-10-02T05:13:13.759Z,1011.40
2018-10-02T05:13:48.749Z,1011.35
2018-10-02T05:14:24.054Z,1011.33
2018-10-02T05:14:59.453Z,1011.36
2018-10-02T05:15:34.882Z,1011.33
2018-10-02T05:16:10.836Z,1011.38
2018-10-02T05:16:49.257Z,1011.30
2018-10-02T05:17:25.605Z,1011.27
2018-10-02T05:18:01.741Z,1011.32
2018-10-02T05:18:37.266Z,1011.34
2018-10-02T05:19:12.689Z,1011.25
2018-10-02T05:19:48.347Z,1011.27
2018-10-02T05:20:23.660Z,1011.21
2018-10-02T05:20:58.830Z,1011.27
2018-10-02T05:21:34.163Z,1011.24
2018-10-02T05:22:09.691Z,1011.24
2018-10-02T05:22:45.223Z,1011.25
2018-10-02T05:23:20.567Z,1011.15
2018-10-02T05:23:56.208Z,1011.20
2018-10-02T05:24:31.607Z,1011.18
2018-10-02T05:25:09.942Z,1011.19
2018-10-02T05:25:45.202Z,1011.19
2018-10-02T05:26:20.503Z,1011.18
2018-10-02T05:26:55.869Z,1011.18
2018-10-02T05:27:31.202Z,1011.18
2018-10-02T05:28:06.966Z,1011.21
2018-10-02T05:28:42.356Z,1011.18
2018-10-02T05:29:17.621Z,1011.15
2018-10-02T05:29:52.913Z,1011.16
2018-10-02T05:30:28.390Z,1011.18
2018-10-02T05:31:04.202Z,1011.15
2018-10-02T05:31:39.535Z,1011.21
2018-10-02T05:32:14.581Z,1011.18
2018-10-02T05:32:49.908Z,1011.15
2018-10-02T05:33:25.121Z,1011.16
2018-10-02T05:34:00.933Z,1011.15
2018-10-02T05:34:36.072Z,1011.20
2018-10-02T05:35:11.454Z,1011.17
2018-10-02T05:35:47.079Z,1011.13
2018-10-02T05:36:22.495Z,1011.20
2018-10-02T05:36:57.822Z,1011.14
2018-10-02T05:37:33.155Z,1011.18
2018-10-02T05:38:08.405Z,1011.13
2018-10-02T05:38:43.647Z,1011.13
2018-10-02T05:39:19.296Z,1011.16
2018-10-02T05:39:54.928Z,1011.17
2018-10-02T05:40:30.260Z,1011.10
2018-10-02T05:41:06.091Z,1011.08
2018-10-02T05:41:41.694Z,1011.09
2018-10-02T05:42:18.715Z,1011.10
2018-10-02T05:42:53.983Z,1011.10
2018-10-02T05:43:29.303Z,1011.11
2018-10-02T05:44:04.748Z,1011.06
2018-10-02T05:44:40.051Z,1011.12
2018-10-02T05:45:15.383Z,1011.02
2018-10-02T05:45:50.957Z,1011.05
2018-10-02T05:46:26.283Z,1011.11
2018-10-02T05:47:01.515Z,1011.07
2018-10-02T05:47:36.687Z,1011.09
2018-10-02T05:48:11.897Z,1011.07
2018-10-02T05:48:50.546Z,1011.04
2018-10-02T05:52:25.368Z,1011.03
2018-10-02T05:53:00.796Z,1011.00
2018-10-02T05:54:14.027Z,1011.02
2018-10-02T05:54:49.466Z,1011.05
2018-10-02T05:55:24.700Z,1010.98
2018-10-02T05:56:00.495Z,1011.00
2018-10-02T05:56:36.205Z,1010.98
2018-10-02T05:57:11.365Z,1010.99
2018-10-02T05:57:47.046Z,1010.97
2018-10-02T05:58:22.400Z,1010.99
2018-10-02T05:58:57.708Z,1011.01
2018-10-02T05:59:32.998Z,1011.03
2018-10-02T06:00:08.435Z,1010.96
2018-10-02T06:00:43.624Z,1010.94
2018-10-02T06:01:18.766Z,1011.00
2018-10-02T06:01:53.866Z,1011.00
2018-10-02T06:02:29.307Z,1010.96
2018-10-02T06:03:04.627Z,1010.95
2018-10-02T06:03:39.996Z,1010.92
2018-10-02T06:04:15.057Z,1010.95
2018-10-02T06:04:50.397Z,1011.00
2018-10-02T06:05:25.716Z,1010.98
2018-10-02T06:06:00.934Z,1010.96
2018-10-02T06:06:36.436Z,1010.92
2018-10-02T06:07:12.055Z,1010.93
2018-10-02T06:07:47.343Z,1010.89
2018-10-02T06:08:22.650Z,1010.87
2018-10-02T06:08:57.876Z,1010.93
2018-10-02T06:09:33.146Z,1010.92
2018-10-02T06:10:08.372Z,1010.93
2018-10-02T06:10:43.481Z,1010.90
2018-10-02T06:11:18.551Z,1010.90
2018-10-02T06:11:54.140Z,1010.88
2018-10-02T06:12:29.706Z,1010.87
2018-10-02T06:13:08.150Z,1010.86
2018-10-02T06:13:44.111Z,1010.87
2018-10-02T06:14:19.651Z,1010.82
